createdAt,value
2023-01-06T00:00:02.991Z,990.3
2023-01-06T00:02:04.406Z,990.3
2023-01-06T00:04:05.362Z,990.2
2023-01-06T00:06:06.541Z,990.1
2023-01-06T00:08:08.000Z,990.1
2023-01-06T00:10:09.512Z,990.1
2023-01-06T00:12:11.259Z,990
2023-01-06T00:14:12.279Z,990
2023-01-06T00:16:13.742Z,990.1
2023-01-06T00:18:15.187Z,989.9
2023-01-06T00:20:16.594Z,990
2023-01-06T00:22:17.675Z,990.1
2023-01-06T00:24:18.643Z,990
2023-01-06T00:26:20.532Z,990
2023-01-06T00:30:24.251Z,989.9
2023-01-06T00:32:25.596Z,989.9
2023-01-06T00:34:27.070Z,989.9
2023-01-06T00:36:28.674Z,989.8
2023-01-06T00:38:30.307Z,989.9
2023-01-06T00:40:31.490Z,989.9
2023-01-06T00:42:33.157Z,989.8
2023-01-06T00:44:34.633Z,989.8
2023-01-06T00:46:35.734Z,989.9
2023-01-06T00:48:37.484Z,989.9
2023-01-06T00:50:38.449Z,989.8
2023-01-06T00:52:39.739Z,989.9
2023-01-06T00:54:41.310Z,989.8
2023-01-06T00:56:42.896Z,989.8
2023-01-06T00:58:44.702Z,989.8
2023-01-06T01:00:46.416Z,989.7
2023-01-06T01:02:48.010Z,989.7
2023-01-06T01:04:49.338Z,989.7
2023-01-06T01:06:50.921Z,989.8
2023-01-06T01:08:52.543Z,989.8
2023-01-06T01:10:54.299Z,989.7
2023-01-06T01:12:55.307Z,989.7
2023-01-06T01:14:56.915Z,989.7
2023-01-06T01:16:58.713Z,989.7
2023-01-06T01:19:00.298Z,989.7
2023-01-06T01:21:01.431Z,989.6
2023-01-06T01:23:02.592Z,989.7
2023-01-06T01:25:03.936Z,989.6
2023-01-06T01:29:07.274Z,989.7
2023-01-06T01:31:09.069Z,989.6
2023-01-06T01:33:10.109Z,989.7
2023-01-06T01:35:11.909Z,989.7
2023-01-06T01:37:12.987Z,989.6
2023-01-06T01:39:14.350Z,989.6
2023-01-06T01:41:15.536Z,989.6
2023-01-06T01:43:17.000Z,989.6
2023-01-06T01:45:18.865Z,989.6
2023-01-06T01:47:20.665Z,989.6
2023-01-06T01:49:22.176Z,989.5
2023-01-06T01:51:24.014Z,989.6
2023-01-06T01:53:25.697Z,989.6
2023-01-06T01:55:27.472Z,989.6
2023-01-06T01:57:29.325Z,989.7
2023-01-06T01:59:30.316Z,989.6
2023-01-06T02:01:32.104Z,989.7
2023-01-06T02:03:33.712Z,989.6
2023-01-06T02:05:35.010Z,989.6
2023-01-06T02:07:36.892Z,989.6
2023-01-06T02:11:39.795Z,989.5
2023-01-06T02:13:41.023Z,989.5
2023-01-06T02:15:42.378Z,989.6
2023-01-06T02:17:43.583Z,989.6
2023-01-06T02:19:45.053Z,989.5
2023-01-06T02:21:46.831Z,989.5
2023-01-06T02:23:47.901Z,989.5
2023-01-06T02:25:49.511Z,989.5
2023-01-06T02:27:51.287Z,989.6
2023-01-06T02:29:53.198Z,989.5
2023-01-06T02:31:54.916Z,989.5
2023-01-06T02:33:56.333Z,989.5
2023-01-06T02:35:57.870Z,989.5
2023-01-06T02:37:59.454Z,989.5
2023-01-06T02:40:00.448Z,989.4
2023-01-06T02:42:02.285Z,989.3
2023-01-06T02:44:03.959Z,989.3
2023-01-06T02:46:04.984Z,989.4
2023-01-06T02:48:06.819Z,989.4
2023-01-06T02:50:08.284Z,989.4
2023-01-06T02:52:09.292Z,989.3
2023-01-06T02:54:10.457Z,989.4
2023-01-06T02:56:12.087Z,989.3
2023-01-06T02:58:13.992Z,989.2
2023-01-06T03:00:15.880Z,989.2
2023-01-06T03:02:17.008Z,989.4
2023-01-06T03:05:02.012Z,989.3
2023-01-06T03:07:03.461Z,989.3
2023-01-06T03:09:05.328Z,989.3
2023-01-06T03:11:06.574Z,989.2
2023-01-06T03:15:09.893Z,989.3
2023-01-06T03:17:11.587Z,989.2
2023-01-06T03:19:13.268Z,989.2
2023-01-06T03:21:14.905Z,989.3
2023-01-06T03:25:17.018Z,989.3
2023-01-06T03:27:18.554Z,989.2
2023-01-06T03:29:20.395Z,989.2
2023-01-06T03:31:21.548Z,989.2
2023-01-06T03:33:23.400Z,989.2
2023-01-06T03:35:24.972Z,989.2
2023-01-06T03:37:26.227Z,989.2
2023-01-06T03:39:28.087Z,989.2
2023-01-06T03:41:29.918Z,989.2
2023-01-06T03:43:31.231Z,989.1
2023-01-06T03:45:32.573Z,989.1
2023-01-06T03:47:33.851Z,989.1
2023-01-06T03:49:35.482Z,989.1
2023-01-06T03:51:36.451Z,989.1
2023-01-06T03:53:37.675Z,989.1
2023-01-06T03:55:39.400Z,989
2023-01-06T03:57:41.063Z,989.1
2023-01-06T03:59:42.778Z,989
2023-01-06T04:01:44.380Z,989
2023-01-06T04:03:46.210Z,988.9
2023-01-06T04:05:47.554Z,988.9
2023-01-06T04:07:49.190Z,989
2023-01-06T04:09:50.495Z,988.9
2023-01-06T04:13:53.525Z,989
2023-01-06T04:15:54.544Z,988.9
2023-01-06T04:17:56.369Z,988.9
2023-01-06T04:19:57.899Z,988.9
2023-01-06T04:21:59.600Z,988.8
2023-01-06T04:24:01.251Z,988.9
2023-01-06T04:26:02.546Z,988.8
2023-01-06T04:28:03.812Z,988.8
2023-01-06T04:30:05.731Z,988.8
2023-01-06T04:32:06.891Z,988.8
2023-01-06T04:34:08.005Z,988.7
2023-01-06T04:36:09.379Z,988.7
2023-01-06T04:38:10.685Z,988.7
2023-01-06T04:40:12.483Z,988.8
2023-01-06T04:42:14.100Z,988.7
2023-01-06T04:44:15.984Z,988.6
2023-01-06T04:46:17.318Z,988.5
2023-01-06T04:48:18.747Z,988.5
2023-01-06T04:50:20.559Z,988.5
2023-01-06T04:52:22.381Z,988.6
2023-01-06T04:54:23.967Z,988.6
2023-01-06T04:56:26.856Z,988.6
2023-01-06T04:58:26.751Z,988.6
2023-01-06T05:00:28.201Z,988.6
2023-01-06T05:02:29.572Z,988.6
2023-01-06T05:04:37.135Z,988.6
2023-01-06T05:06:32.805Z,988.5
2023-01-06T05:08:34.202Z,988.5
2023-01-06T05:10:35.832Z,988.6
2023-01-06T05:12:37.208Z,988.5
2023-01-06T05:14:38.561Z,988.6
2023-01-06T05:16:40.450Z,988.6
2023-01-06T05:18:41.723Z,988.6
2023-01-06T05:20:43.469Z,988.6
2023-01-06T05:22:45.179Z,988.5
2023-01-06T05:24:46.663Z,988.6
2023-01-06T05:26:48.210Z,988.5
2023-01-06T05:28:49.236Z,988.6
2023-01-06T05:30:50.248Z,988.5
2023-01-06T05:32:51.444Z,988.5
2023-01-06T05:34:52.659Z,988.4
2023-01-06T05:36:53.693Z,988.5
2023-01-06T05:38:55.585Z,988.4
2023-01-06T05:40:56.652Z,988.3
2023-01-06T05:42:58.574Z,988.4
2023-01-06T05:45:00.262Z,988.3
2023-01-06T05:47:01.115Z,988.4
2023-01-06T05:49:02.672Z,988.4
2023-01-06T05:51:04.568Z,988.4
2023-01-06T05:53:06.416Z,988.4
2023-01-06T05:55:08.151Z,988.4
2023-01-06T05:57:09.913Z,988.4
2023-01-06T05:59:11.096Z,988.3
2023-01-06T06:01:12.585Z,988.3
2023-01-06T06:03:14.080Z,988.4
2023-01-06T06:05:15.370Z,988.4
2023-01-06T06:07:16.359Z,988.4
2023-01-06T06:09:17.327Z,988.5
2023-01-06T06:11:18.601Z,988.4
2023-01-06T06:13:19.900Z,988.5
2023-01-06T06:15:21.848Z,988.5
2023-01-06T06:17:22.818Z,988.5
2023-01-06T06:21:25.273Z,988.5
2023-01-06T06:23:26.437Z,988.6
2023-01-06T06:25:27.851Z,988.5
2023-01-06T06:27:29.067Z,988.6
2023-01-06T06:31:32.453Z,988.7
2023-01-06T06:33:33.773Z,988.7
2023-01-06T06:35:35.015Z,988.7
2023-01-06T06:37:36.270Z,988.6
2023-01-06T06:39:37.656Z,988.6
2023-01-06T06:41:39.486Z,988.6
2023-01-06T06:43:40.825Z,988.6
2023-01-06T06:45:42.458Z,988.5
2023-01-06T06:47:43.755Z,988.6
2023-01-06T06:49:44.704Z,988.6
2023-01-06T06:51:45.999Z,988.5
2023-01-06T06:53:47.720Z,988.5
2023-01-06T06:55:49.559Z,988.5
2023-01-06T06:57:51.083Z,988.4
2023-01-06T06:59:52.598Z,988.6
2023-01-06T07:01:54.284Z,988.6
2023-01-06T07:03:55.271Z,988.6
2023-01-06T07:05:56.429Z,988.6
2023-01-06T07:07:58.071Z,988.7
2023-01-06T07:09:59.106Z,988.7
2023-01-06T07:12:00.785Z,988.7
2023-01-06T07:14:02.098Z,988.7
2023-01-06T07:16:03.268Z,988.7
2023-01-06T07:18:05.115Z,988.6
2023-01-06T07:20:06.579Z,988.7
2023-01-06T07:22:08.347Z,988.8
2023-01-06T07:24:09.362Z,988.7
2023-01-06T07:26:10.569Z,988.8
2023-01-06T07:28:11.888Z,988.8
2023-01-06T07:30:13.111Z,988.8
2023-01-06T07:32:14.811Z,988.8
2023-01-06T07:36:17.750Z,988.8
2023-01-06T07:38:19.217Z,989
2023-01-06T07:40:20.120Z,988.8
2023-01-06T07:42:22.006Z,988.8
2023-01-06T07:44:23.662Z,988.9
2023-01-06T07:46:25.250Z,988.9
2023-01-06T07:48:26.707Z,988.9
2023-01-06T07:50:27.837Z,988.8
2023-01-06T07:52:29.248Z,988.9
2023-01-06T07:54:31.071Z,988.8
2023-01-06T07:56:32.373Z,988.9
2023-01-06T07:58:33.678Z,988.9
2023-01-06T08:00:35.063Z,988.8
2023-01-06T08:02:36.895Z,988.9
2023-01-06T08:04:38.575Z,988.9
2023-01-06T08:06:39.827Z,988.8
2023-01-06T08:08:41.257Z,988.8
2023-01-06T08:10:42.774Z,988.9
2023-01-06T08:12:44.043Z,988.9
2023-01-06T08:14:45.601Z,988.9
2023-01-06T08:18:48.859Z,989
2023-01-06T08:20:50.599Z,989
2023-01-06T08:22:51.635Z,989
2023-01-06T08:24:52.997Z,989
2023-01-06T08:26:54.640Z,989.1
2023-01-06T08:28:55.611Z,989.1
2023-01-06T08:30:56.757Z,989
2023-01-06T08:32:58.121Z,989.1
2023-01-06T08:34:59.216Z,989
2023-01-06T08:37:00.331Z,989.1
2023-01-06T08:39:02.010Z,988.9
2023-01-06T08:41:03.701Z,989.1
2023-01-06T08:45:06.202Z,989.2
2023-01-06T08:47:07.206Z,989.2
2023-01-06T08:49:08.575Z,989.2
2023-01-06T08:51:09.853Z,989.2
2023-01-06T08:55:12.605Z,989.3
2023-01-06T08:57:13.807Z,989.3
2023-01-06T08:59:14.969Z,989.4
2023-01-06T09:01:16.674Z,989.4
2023-01-06T09:03:18.103Z,989.5
2023-01-06T09:05:19.247Z,989.4
2023-01-06T09:07:20.973Z,989.5
2023-01-06T09:09:22.587Z,989.6
2023-01-06T09:11:24.197Z,989.6
2023-01-06T09:13:26.004Z,989.6
2023-01-06T09:15:27.085Z,989.7
2023-01-06T09:17:28.769Z,989.7
2023-01-06T09:19:29.980Z,989.7
2023-01-06T09:21:31.414Z,989.6
2023-01-06T09:23:32.633Z,989.5
2023-01-06T09:25:33.788Z,989.6
2023-01-06T09:27:35.012Z,989.7
2023-01-06T09:29:36.497Z,989.7
2023-01-06T09:31:38.313Z,989.8
2023-01-06T09:33:39.717Z,989.7
2023-01-06T09:35:41.549Z,989.7
2023-01-06T09:37:43.334Z,989.8
2023-01-06T09:39:44.779Z,989.8
2023-01-06T09:43:48.042Z,989.7
2023-01-06T09:45:49.171Z,989.6
2023-01-06T09:47:50.329Z,989.7
2023-01-06T09:48:34.204Z,989.8
2023-01-06T09:50:35.961Z,989.7
2023-01-06T09:52:37.568Z,989.8
2023-01-06T09:54:39.000Z,989.8
2023-01-06T09:56:40.206Z,989.7
2023-01-06T09:58:41.677Z,989.6
2023-01-06T10:00:42.684Z,989.6
2023-01-06T10:02:44.492Z,989.6
2023-01-06T10:04:45.455Z,989.6
2023-01-06T10:06:46.407Z,989.6
2023-01-06T10:08:47.509Z,989.5
2023-01-06T10:10:48.518Z,989.6
2023-01-06T10:12:49.731Z,989.7
2023-01-06T10:14:51.248Z,989.6
2023-01-06T10:16:52.545Z,989.6
2023-01-06T10:18:53.725Z,989.6
2023-01-06T10:20:55.233Z,989.6
2023-01-06T10:22:56.392Z,989.7
2023-01-06T10:24:57.745Z,989.7
2023-01-06T10:26:59.274Z,989.5
2023-01-06T10:29:00.388Z,989.4
2023-01-06T10:31:02.133Z,989.5
2023-01-06T10:33:03.274Z,989.5
2023-01-06T10:35:04.532Z,989.5
2023-01-06T10:37:05.680Z,989.6
2023-01-06T10:39:07.056Z,989.5
2023-01-06T10:41:08.841Z,989.4
2023-01-06T10:43:09.760Z,989.5
2023-01-06T10:45:11.629Z,989.4
2023-01-06T10:47:13.293Z,989.5
2023-01-06T10:49:14.949Z,989.4
2023-01-06T10:51:16.744Z,989.4
2023-01-06T10:53:18.459Z,989.4
2023-01-06T10:55:19.814Z,989.5
2023-01-06T10:57:21.395Z,989.5
2023-01-06T10:59:22.907Z,989.4
2023-01-06T11:01:24.065Z,989.5
2023-01-06T11:03:33.110Z,989.4
2023-01-06T11:05:26.253Z,989.5
2023-01-06T11:07:27.850Z,989.5
2023-01-06T11:09:28.862Z,989.5
2023-01-06T11:13:33.636Z,989.4
2023-01-06T11:15:32.656Z,989.5
2023-01-06T11:19:35.238Z,989.5
2023-01-06T11:21:45.417Z,989.5
2023-01-06T11:23:38.852Z,989.4
2023-01-06T11:25:39.427Z,989.4
2023-01-06T11:27:40.578Z,989.3
2023-01-06T11:29:42.350Z,989.3
2023-01-06T11:31:44.086Z,989.3
2023-01-06T11:35:47.046Z,989.3
2023-01-06T11:37:48.689Z,989.3
2023-01-06T11:39:55.715Z,989.4
2023-01-06T11:41:51.663Z,989.3
2023-01-06T11:45:55.429Z,989.3
2023-01-06T11:47:55.291Z,989.4
2023-01-06T11:49:56.384Z,989.3
2023-01-06T11:51:58.240Z,989.3
2023-01-06T11:53:59.978Z,989.3
2023-01-06T11:56:01.814Z,989.3
2023-01-06T11:58:03.723Z,989.4
2023-01-06T12:00:04.744Z,989.4
2023-01-06T12:02:05.908Z,989.3
2023-01-06T12:04:07.238Z,989.3
2023-01-06T12:06:08.331Z,989.3
2023-01-06T12:08:10.007Z,989.3
2023-01-06T12:10:11.679Z,989.2
2023-01-06T12:12:13.557Z,989.1
2023-01-06T12:14:27.271Z,989.1
2023-01-06T12:16:16.879Z,989.1
2023-01-06T12:18:17.847Z,989.1
2023-01-06T12:20:19.212Z,989.1
2023-01-06T12:22:20.821Z,989
2023-01-06T12:24:22.692Z,989
2023-01-06T12:26:23.980Z,989
2023-01-06T12:28:25.551Z,989.1
2023-01-06T12:30:26.535Z,989.1
2023-01-06T12:34:29.927Z,988.9
2023-01-06T12:36:31.376Z,988.9
2023-01-06T12:38:32.845Z,988.8
2023-01-06T12:40:34.045Z,988.9
2023-01-06T12:42:35.567Z,988.9
2023-01-06T12:44:37.498Z,988.7
2023-01-06T12:46:39.059Z,988.7
2023-01-06T12:48:40.063Z,988.9
2023-01-06T12:50:41.717Z,988.9
2023-01-06T12:52:42.981Z,988.9
2023-01-06T12:54:44.281Z,988.9
2023-01-06T12:56:46.014Z,989
2023-01-06T12:58:47.209Z,989.1
2023-01-06T13:00:48.490Z,989
2023-01-06T13:02:49.701Z,989
2023-01-06T13:04:51.473Z,989.1
2023-01-06T13:06:52.980Z,989.1
2023-01-06T13:08:54.495Z,989
2023-01-06T13:10:55.773Z,989
2023-01-06T13:12:57.365Z,989
2023-01-06T13:14:58.447Z,989.1
2023-01-06T13:16:59.557Z,989.1
2023-01-06T13:19:01.204Z,989
2023-01-06T13:21:02.715Z,989
2023-01-06T13:23:04.080Z,989.1
2023-01-06T13:25:05.539Z,989
2023-01-06T13:27:07.264Z,989.1
2023-01-06T13:29:08.922Z,989
2023-01-06T13:33:11.856Z,989.1
2023-01-06T13:35:12.971Z,989
2023-01-06T13:37:14.256Z,989
2023-01-06T13:39:15.804Z,989.1
2023-01-06T13:41:17.443Z,989
2023-01-06T13:43:18.468Z,989.1
2023-01-06T13:45:20.394Z,989.1
2023-01-06T13:47:22.245Z,989.1
2023-01-06T13:49:23.474Z,989.1
2023-01-06T13:51:25.134Z,989.1
2023-01-06T13:53:26.655Z,989.1
2023-01-06T13:55:27.617Z,989.1
2023-01-06T13:57:28.980Z,989.1
2023-01-06T13:59:30.809Z,989.2
2023-01-06T14:01:32.613Z,989.2
2023-01-06T14:03:33.565Z,989.2
2023-01-06T14:05:34.920Z,989
2023-01-06T14:07:36.726Z,989
2023-01-06T14:09:38.237Z,989.1
2023-01-06T14:11:39.201Z,989.1
2023-01-06T14:13:40.503Z,989.1
2023-01-06T14:15:41.537Z,989.1
2023-01-06T14:17:43.113Z,989.1
2023-01-06T14:19:44.626Z,989.2
2023-01-06T14:21:46.371Z,989.3
2023-01-06T14:23:47.551Z,989.2
2023-01-06T14:25:49.119Z,989.3
2023-01-06T14:27:50.851Z,989.3
2023-01-06T14:29:52.110Z,989.2
2023-01-06T14:31:53.292Z,989.4
2023-01-06T14:33:55.079Z,989.3
2023-01-06T14:35:56.049Z,989.3
2023-01-06T14:37:57.122Z,989.2
2023-01-06T14:41:59.457Z,989.4
2023-01-06T14:44:00.419Z,989.3
2023-01-06T14:46:02.238Z,989.3
2023-01-06T14:48:03.611Z,989.3
2023-01-06T14:52:08.818Z,989.4
2023-01-06T14:54:07.377Z,989.4
2023-01-06T14:56:08.834Z,989.4
2023-01-06T14:58:10.312Z,989.5
2023-01-06T15:00:11.982Z,989.4
2023-01-06T15:02:14.091Z,989.4
2023-01-06T15:04:15.510Z,989.5
2023-01-06T15:06:16.413Z,989.6
2023-01-06T15:08:17.813Z,989.5
2023-01-06T15:10:19.011Z,989.5
2023-01-06T15:12:20.534Z,989.5
2023-01-06T15:14:21.891Z,989.7
2023-01-06T15:16:23.683Z,989.6
2023-01-06T15:18:24.800Z,989.6
2023-01-06T15:20:25.951Z,989.6
2023-01-06T15:22:27.210Z,989.7
2023-01-06T15:24:28.196Z,989.6
2023-01-06T15:26:29.134Z,989.6
2023-01-06T15:28:30.377Z,989.6
2023-01-06T15:30:31.422Z,989.7
2023-01-06T15:32:32.477Z,989.6
2023-01-06T15:34:34.073Z,989.7
2023-01-06T15:36:35.559Z,989.7
2023-01-06T15:38:37.383Z,989.6
2023-01-06T15:40:39.223Z,989.7
2023-01-06T15:42:40.253Z,989.7
2023-01-06T15:44:41.358Z,989.7
2023-01-06T15:46:42.615Z,989.7
2023-01-06T15:48:44.036Z,989.6
2023-01-06T15:50:45.345Z,989.7
2023-01-06T15:52:47.033Z,989.6
2023-01-06T15:56:49.571Z,989.7
2023-01-06T15:58:50.706Z,989.7
2023-01-06T16:00:52.228Z,989.7
2023-01-06T16:02:54.030Z,989.6
2023-01-06T16:04:55.839Z,989.7
2023-01-06T16:06:57.506Z,989.6
2023-01-06T16:08:59.259Z,989.7
2023-01-06T16:11:00.468Z,989.6
2023-01-06T16:13:01.933Z,989.6
2023-01-06T16:15:03.846Z,989.6
2023-01-06T16:17:05.084Z,989.6
2023-01-06T16:19:06.969Z,989.6
2023-01-06T16:21:08.651Z,989.6
2023-01-06T16:23:09.900Z,989.6
2023-01-06T16:25:10.964Z,989.5
2023-01-06T16:27:12.474Z,989.5
2023-01-06T16:29:13.690Z,989.5
2023-01-06T16:31:14.759Z,989.5
2023-01-06T16:33:16.296Z,989.6
2023-01-06T16:34:00.107Z,989.6
2023-01-06T16:38:03.753Z,989.5
2023-01-06T16:40:05.161Z,989.6
2023-01-06T16:42:06.262Z,989.5
2023-01-06T16:44:07.442Z,989.6
2023-01-06T16:46:08.682Z,989.5
2023-01-06T16:48:09.594Z,989.6
2023-01-06T16:50:11.496Z,989.6
2023-01-06T16:52:12.593Z,989.5
2023-01-06T16:54:13.871Z,989.6
2023-01-06T16:56:15.122Z,989.5
2023-01-06T16:58:16.805Z,989.5
2023-01-06T17:00:18.253Z,989.6
2023-01-06T17:02:19.511Z,989.6
2023-01-06T17:04:20.595Z,989.6
2023-01-06T17:06:21.599Z,989.6
2023-01-06T17:10:24.153Z,989.6
2023-01-06T17:12:25.535Z,989.7
2023-01-06T17:16:28.653Z,989.6
2023-01-06T17:18:30.002Z,989.7
2023-01-06T17:20:31.359Z,989.7
2023-01-06T17:22:32.462Z,989.7
2023-01-06T17:24:34.039Z,989.7
2023-01-06T17:26:35.349Z,989.7
2023-01-06T17:28:36.819Z,989.6
2023-01-06T17:30:38.729Z,989.6
2023-01-06T17:32:48.133Z,989.6
2023-01-06T17:34:41.403Z,989.6
2023-01-06T17:36:42.700Z,989.7
2023-01-06T17:38:43.735Z,989.7
2023-01-06T17:40:45.583Z,989.7
2023-01-06T17:42:46.866Z,989.6
2023-01-06T17:44:47.811Z,989.7
2023-01-06T17:46:48.986Z,989.7
2023-01-06T17:48:49.877Z,989.7
2023-01-06T17:50:51.547Z,989.7
2023-01-06T17:52:52.657Z,989.7
2023-01-06T17:54:53.978Z,989.7
2023-01-06T17:56:55.405Z,989.6
2023-01-06T17:58:56.729Z,989.7
2023-01-06T18:00:57.811Z,989.7
2023-01-06T18:02:58.929Z,989.7
2023-01-06T18:05:00.148Z,989.8
2023-01-06T18:07:01.299Z,989.8
2023-01-06T18:09:02.452Z,989.8
2023-01-06T18:11:03.908Z,989.8
2023-01-06T18:15:06.624Z,989.9
2023-01-06T18:17:08.524Z,989.9
2023-01-06T18:19:09.957Z,989.9
2023-01-06T18:21:11.281Z,990
2023-01-06T18:23:13.074Z,989.9
2023-01-06T18:25:14.453Z,989.9
2023-01-06T18:27:15.622Z,990
2023-01-06T18:29:17.429Z,990
2023-01-06T18:31:19.133Z,990
2023-01-06T18:33:20.890Z,990
2023-01-06T18:35:21.943Z,990
2023-01-06T18:37:23.685Z,990
2023-01-06T18:39:24.784Z,990.1
2023-01-06T18:41:26.046Z,990.1
2023-01-06T18:43:27.990Z,990.1
2023-01-06T18:45:29.686Z,990.1
2023-01-06T18:47:30.721Z,990.1
2023-01-06T18:49:32.088Z,990
2023-01-06T18:51:33.632Z,990.2
2023-01-06T18:53:35.472Z,990.1
2023-01-06T18:55:36.816Z,990.1
2023-01-06T18:57:38.367Z,990.1
2023-01-06T18:59:39.686Z,990.1
2023-01-06T19:01:41.215Z,990.1
2023-01-06T19:03:42.586Z,990
2023-01-06T19:05:44.451Z,990
2023-01-06T19:07:45.724Z,990
2023-01-06T19:09:47.179Z,990
2023-01-06T19:11:49.060Z,990
2023-01-06T19:13:50.685Z,990
2023-01-06T19:15:52.017Z,990
2023-01-06T19:17:53.726Z,989.9
2023-01-06T19:19:55.206Z,989.9
2023-01-06T19:21:57.095Z,990
2023-01-06T19:23:58.709Z,989.9
2023-01-06T19:26:00.476Z,989.9
2023-01-06T19:28:01.728Z,990
2023-01-06T19:30:02.795Z,989.9
2023-01-06T19:34:05.552Z,989.9
2023-01-06T19:36:06.586Z,990
2023-01-06T19:38:08.003Z,989.9
2023-01-06T19:40:09.387Z,990
2023-01-06T19:42:10.774Z,990
2023-01-06T19:44:12.590Z,990
2023-01-06T19:46:13.984Z,989.9
2023-01-06T19:48:15.247Z,989.8
2023-01-06T19:50:16.565Z,989.9
2023-01-06T19:52:18.315Z,989.9
2023-01-06T19:54:19.509Z,989.9
2023-01-06T19:56:21.086Z,989.9
2023-01-06T19:58:22.963Z,989.9
2023-01-06T20:00:24.316Z,990
2023-01-06T20:02:25.484Z,990
2023-01-06T20:04:26.877Z,990
2023-01-06T20:06:28.243Z,990
2023-01-06T20:08:29.785Z,989.9
2023-01-06T20:10:30.901Z,990
2023-01-06T20:12:32.661Z,990
2023-01-06T20:16:35.908Z,990.1
2023-01-06T20:18:37.591Z,990
2023-01-06T20:20:38.894Z,990.1
2023-01-06T20:22:40.558Z,990.1
2023-01-06T20:24:41.660Z,990
2023-01-06T20:26:43.344Z,990
2023-01-06T20:28:44.682Z,990
2023-01-06T20:30:46.396Z,989.9
2023-01-06T20:32:47.523Z,989.9
2023-01-06T20:34:49.465Z,989.9
2023-01-06T20:36:51.347Z,989.9
2023-01-06T20:38:52.753Z,989.9
2023-01-06T20:40:54.063Z,990
2023-01-06T20:42:55.854Z,990
2023-01-06T20:44:56.946Z,989.9
2023-01-06T20:46:58.814Z,990
2023-01-06T20:49:00.022Z,990
2023-01-06T20:51:01.687Z,990
2023-01-06T20:53:03.232Z,990
2023-01-06T20:55:04.957Z,990
2023-01-06T20:57:06.451Z,990
2023-01-06T20:59:07.492Z,989.9
2023-01-06T21:01:08.646Z,990
2023-01-06T21:05:12.064Z,990
2023-01-06T21:07:13.089Z,990
2023-01-06T21:09:14.612Z,990
2023-01-06T21:11:15.562Z,989.9
2023-01-06T21:13:17.197Z,990
2023-01-06T21:15:18.764Z,990
2023-01-06T21:17:19.971Z,989.9
2023-01-06T21:19:21.222Z,989.9
2023-01-06T21:21:22.148Z,990
2023-01-06T21:23:23.277Z,989.9
2023-01-06T21:25:24.977Z,989.9
2023-01-06T21:27:26.310Z,989.9
2023-01-06T21:29:27.490Z,989.9
2023-01-06T21:31:28.824Z,989.9
2023-01-06T21:33:30.054Z,989.9
2023-01-06T21:35:31.763Z,989.8
2023-01-06T21:37:33.603Z,989.8
2023-01-06T21:39:35.266Z,989.8
2023-01-06T21:41:36.234Z,989.7
2023-01-06T21:43:37.228Z,989.8
2023-01-06T21:45:38.830Z,989.8
2023-01-06T21:47:40.389Z,989.9
2023-01-06T21:49:41.451Z,989.8
2023-01-06T21:51:43.082Z,989.8
2023-01-06T21:53:44.063Z,989.8
2023-01-06T21:55:45.603Z,989.8
2023-01-06T21:57:47.024Z,989.8
2023-01-06T21:59:48.309Z,989.8
2023-01-06T22:01:50.067Z,989.8
2023-01-06T22:03:51.605Z,989.8
2023-01-06T22:05:52.862Z,989.7
2023-01-06T22:07:53.937Z,989.7
2023-01-06T22:09:55.574Z,989.7
2023-01-06T22:11:57.357Z,989.6
2023-01-06T22:13:59.199Z,989.7
2023-01-06T22:16:00.282Z,989.7
2023-01-06T22:18:02.218Z,989.6
2023-01-06T22:20:03.418Z,989.7
2023-01-06T22:22:05.086Z,989.6
2023-01-06T22:24:06.457Z,989.6
2023-01-06T22:26:07.801Z,989.7
2023-01-06T22:30:10.637Z,989.8
2023-01-06T22:32:12.092Z,989.9
2023-01-06T22:34:13.881Z,989.8
2023-01-06T22:36:15.586Z,989.9
2023-01-06T22:40:18.917Z,989.9
2023-01-06T22:42:22.535Z,989.9
2023-01-06T22:44:21.292Z,989.8
2023-01-06T22:46:23.221Z,989.9
2023-01-06T22:48:24.480Z,989.8
2023-01-06T22:50:26.091Z,989.9
2023-01-06T22:52:27.116Z,989.8
2023-01-06T22:54:28.268Z,989.9
2023-01-06T22:56:29.304Z,990
2023-01-06T22:58:31.107Z,989.9
2023-01-06T23:00:32.544Z,989.9
2023-01-06T23:02:33.943Z,990
2023-01-06T23:04:35.508Z,990
2023-01-06T23:06:36.939Z,989.8
2023-01-06T23:08:40.753Z,989.8
2023-01-06T23:10:40.019Z,989.9
2023-01-06T23:12:41.368Z,990
2023-01-06T23:14:42.703Z,989.9
2023-01-06T23:16:44.029Z,989.8
2023-01-06T23:18:45.229Z,989.8
2023-01-06T23:19:29.029Z,989.8
2023-01-06T23:23:32.479Z,989.8
2023-01-06T23:25:33.939Z,989.8
2023-01-06T23:27:35.562Z,989.7
2023-01-06T23:29:36.783Z,989.7
2023-01-06T23:31:38.200Z,989.6
2023-01-06T23:33:39.459Z,989.6
2023-01-06T23:35:40.840Z,989.7
2023-01-06T23:37:42.561Z,989.6
2023-01-06T23:39:44.158Z,989.7
2023-01-06T23:41:45.403Z,989.7
2023-01-06T23:43:46.721Z,989.6
2023-01-06T23:45:47.787Z,989.6
2023-01-06T23:47:49.262Z,989.6
2023-01-06T23:49:50.629Z,989.6
2023-01-06T23:51:51.867Z,989.6
2023-01-06T23:53:53.050Z,989.6
2023-01-06T23:55:54.841Z,989.6
2023-01-06T23:57:55.971Z,989.5
2023-01-06T23:59:57.591Z,989.4
